Time;durP1;ratioP1;P1;durP2;ratioP2;P2;SDS_P1;SDS_P2;PMS_P1;PMS_P2;Temp;Humidity;BMP_temperature;BMP_pressure;BME280_temperature;BME280_humidity;BME280_pressure;Samples;Min_cycle;Max_cycle;Signal;HPM_P1;HPM_P2
2023/03/17 00:02:24;;;;;;;1.37;0.90;;;19.90;96.60;;;;;;5015676;28;20461;-90
2023/03/17 00:04:51;;;;;;;1.40;1.00;;;20.00;97.00;;;;;;5015246;28;20788;-90
2023/03/17 00:07:18;;;;;;;2.40;1.07;;;19.90;97.10;;;;;;5015057;28;20509;-89
2023/03/17 00:09:45;;;;;;;1.70;1.30;;;20.00;97.10;;;;;;5015061;28;20493;-90
2023/03/17 00:12:12;;;;;;;1.37;0.87;;;20.00;97.30;;;;;;5016198;28;20447;-90
2023/03/17 00:14:43;;;;;;;1.93;0.93;;;19.90;97.00;;;;;;5016395;28;20479;-90
2023/03/17 00:17:13;;;;;;;1.47;0.90;;;19.90;97.10;;;;;;5015567;28;20525;-90
2023/03/17 00:19:42;;;;;;;2.03;1.20;;;19.90;97.00;;;;;;5014973;28;20941;-91
2023/03/17 00:22:15;;;;;;;3.27;1.40;;;19.90;97.20;;;;;;5015466;28;20428;-88
2023/03/17 00:24:42;;;;;;;3.00;0.90;;;19.90;97.20;;;;;;5019859;28;20494;-89
2023/03/17 00:27:12;;;;;;;2.07;1.33;;;19.90;97.60;;;;;;5014652;28;20945;-89
2023/03/17 00:29:40;;;;;;;1.73;1.00;;;19.90;97.10;;;;;;5015110;28;21024;-89
2023/03/17 00:32:16;;;;;;;1.33;1.10;;;19.90;97.40;;;;;;5014214;28;20443;-89
2023/03/17 00:34:43;;;;;;;2.10;1.10;;;19.90;97.30;;;;;;5014852;28;20855;-89
2023/03/17 00:37:13;;;;;;;1.27;1.10;;;20.00;97.30;;;;;;5013977;28;20482;-89
2023/03/17 00:39:40;;;;;;;4.87;1.47;;;19.90;97.20;;;;;;5014898;28;20450;-89
2023/03/17 00:42:07;;;;;;;1.53;1.00;;;19.90;97.20;;;;;;5017464;28;20445;-89
2023/03/17 00:44:34;;;;;;;1.80;1.10;;;19.90;97.20;;;;;;5017753;28;20439;-89
2023/03/17 00:47:02;;;;;;;1.30;1.10;;;19.90;97.20;;;;;;5020444;28;20449;-89
2023/03/17 00:49:29;;;;;;;4.90;1.00;;;19.90;97.10;;;;;;5017808;28;20447;-89
2023/03/17 00:51:56;;;;;;;1.33;1.00;;;19.90;97.10;;;;;;5018385;28;20446;-89
2023/03/17 00:54:23;;;;;;;1.27;0.93;;;20.20;97.80;;;;;;5018356;28;20500;-89
2023/03/17 00:56:51;;;;;;;2.13;0.90;;;19.90;97.60;;;;;;5018791;28;20447;-89
2023/03/17 00:59:26;;;;;;;1.90;1.10;;;19.80;97.10;;;;;;5018438;28;20534;-89
2023/03/17 01:01:54;;;;;;;1.20;1.10;;;19.90;97.30;;;;;;5017915;28;20449;-88
2023/03/17 01:04:22;;;;;;;2.50;1.10;;;19.90;97.10;;;;;;5019827;28;20446;-88
2023/03/17 01:06:50;;;;;;;2.30;0.90;;;19.90;97.20;;;;;;5018868;28;20454;-88
2023/03/17 01:09:19;;;;;;;1.70;1.00;;;19.80;97.10;;;;;;5017821;28;20468;-88
2023/03/17 01:11:47;;;;;;;1.50;1.20;;;19.80;97.20;;;;;;5018517;28;20439;-89
2023/03/17 01:14:14;;;;;;;2.83;1.20;;;19.80;96.80;;;;;;5017675;28;20482;-90
2023/03/17 01:16:41;;;;;;;4.67;0.90;;;19.80;96.80;;;;;;5017618;28;20957;-89
2023/03/17 01:19:09;;;;;;;1.23;1.13;;;19.80;96.80;;;;;;5017570;28;20439;-89
2023/03/17 01:21:37;;;;;;;1.97;1.03;;;20.00;97.10;;;;;;5017830;28;20447;-89
2023/03/17 01:24:05;;;;;;;2.03;0.80;;;19.80;96.80;;;;;;5018040;28;20542;-89
2023/03/17 01:26:32;;;;;;;1.30;1.00;;;19.80;96.70;;;;;;5019221;28;20438;-89
2023/03/17 01:28:59;;;;;;;1.87;1.10;;;19.80;96.70;;;;;;5018653;28;20466;-89
2023/03/17 01:31:26;;;;;;;1.10;0.90;;;19.80;96.70;;;;;;5017483;28;20441;-89
2023/03/17 01:33:52;;;;;;;1.10;0.90;;;19.80;96.70;;;;;;5017185;28;20887;-89
2023/03/17 01:36:19;;;;;;;1.80;1.20;;;19.90;96.80;;;;;;5016751;28;20566;-89
2023/03/17 01:38:49;;;;;;;1.20;0.90;;;19.80;96.80;;;;;;5017676;28;20439;-89
2023/03/17 01:41:17;;;;;;;1.33;1.03;;;19.80;96.90;;;;;;5017408;28;20803;-89
2023/03/17 01:43:44;;;;;;;1.20;1.03;;;19.80;96.70;;;;;;5017269;28;20452;-89
2023/03/17 01:46:26;;;;;;;1.53;1.23;;;19.80;96.60;;;;;;5016594;28;20533;-89
2023/03/17 01:49:05;;;;;;;1.20;0.90;;;19.80;96.70;;;;;;5016723;28;20513;-89
2023/03/17 01:51:37;;;;;;;1.40;1.00;;;19.80;96.70;;;;;;4997466;28;20996;-89
2023/03/17 01:54:09;;;;;;;1.57;0.90;;;19.80;96.70;;;;;;4997901;28;20488;-87
2023/03/17 01:56:38;;;;;;;1.30;1.10;;;19.80;96.80;;;;;;4997779;28;20439;-87
2023/03/17 01:59:08;;;;;;;4.17;1.17;;;19.80;96.70;;;;;;4997480;28;20478;-89
2023/03/17 02:01:41;;;;;;;2.67;1.13;;;19.80;96.80;;;;;;4997749;28;20451;-87
2023/03/17 02:04:09;;;;;;;1.70;1.10;;;19.80;96.80;;;;;;4996997;28;20450;-88
2023/03/17 02:06:36;;;;;;;1.83;1.13;;;19.70;96.70;;;;;;4997687;28;20440;-87
2023/03/17 02:09:02;;;;;;;1.10;1.00;;;19.80;96.80;;;;;;4998146;28;20452;-88
2023/03/17 02:11:31;;;;;;;1.00;0.80;;;19.70;96.60;;;;;;4998585;28;20440;-87
2023/03/17 02:13:58;;;;;;;2.23;0.90;;;19.70;96.50;;;;;;4997022;28;20490;-89
2023/03/17 02:16:25;;;;;;;1.10;1.00;;;19.70;96.50;;;;;;4997416;28;20448;-89
2023/03/17 02:18:52;;;;;;;1.17;0.97;;;19.70;96.50;;;;;;4997061;28;20507;-89
2023/03/17 02:21:40;;;;;;;1.17;0.80;;;19.70;96.50;;;;;;4997173;28;20564;-89
2023/03/17 02:24:13;;;;;;;1.27;0.80;;;19.90;96.60;;;;;;4996718;28;20490;-89
2023/03/17 02:26:40;;;;;;;1.40;0.90;;;19.70;96.50;;;;;;4997814;28;20454;-90
2023/03/17 02:29:07;;;;;;;2.23;0.97;;;19.80;96.40;;;;;;4997073;28;20482;-89
2023/03/17 02:31:34;;;;;;;1.23;1.03;;;19.70;96.30;;;;;;4998304;28;20495;-89
2023/03/17 02:34:01;;;;;;;1.03;0.80;;;19.70;96.30;;;;;;4996323;28;20479;-89
2023/03/17 02:36:30;;;;;;;1.40;0.90;;;19.70;96.30;;;;;;4997237;28;20814;-87
2023/03/17 02:38:56;;;;;;;1.03;0.87;;;19.70;96.40;;;;;;4999130;28;20450;-88
2023/03/17 02:41:23;;;;;;;2.50;1.20;;;19.70;96.40;;;;;;5016648;28;20813;-89
2023/03/17 02:43:50;;;;;;;2.03;1.00;;;19.70;96.20;;;;;;5016561;28;20443;-87
2023/03/17 02:46:17;;;;;;;1.27;1.07;;;19.70;96.30;;;;;;5016754;28;20447;-88
2023/03/17 02:48:45;;;;;;;1.77;0.90;;;19.70;96.30;;;;;;5016152;28;20538;-89
2023/03/17 02:51:13;;;;;;;1.47;1.07;;;20.00;96.80;;;;;;5016485;28;20451;-88
2023/03/17 02:53:41;;;;;;;2.87;1.00;;;19.70;96.70;;;;;;5017865;28;20808;-88
2023/03/17 02:56:08;;;;;;;1.57;1.23;;;19.70;96.70;;;;;;5016750;28;20442;-87
2023/03/17 02:58:35;;;;;;;1.57;0.80;;;19.70;96.70;;;;;;5015998;28;20884;-89
2023/03/17 03:01:02;;;;;;;1.40;1.00;;;19.70;96.40;;;;;;5017259;28;20442;-88
2023/03/17 03:03:30;;;;;;;1.70;1.07;;;19.70;96.50;;;;;;5015842;28;20454;-89
2023/03/17 03:05:57;;;;;;;1.67;1.00;;;19.70;96.60;;;;;;5017740;28;20447;-89
2023/03/17 03:08:25;;;;;;;1.43;1.10;;;19.70;96.40;;;;;;5015640;28;20450;-87
2023/03/17 03:10:53;;;;;;;1.10;0.87;;;19.70;96.30;;;;;;5016997;28;20450;-88
2023/03/17 03:13:20;;;;;;;1.10;0.80;;;19.70;96.30;;;;;;5016005;28;20444;-89
2023/03/17 03:15:47;;;;;;;1.30;1.00;;;19.70;96.20;;;;;;5016798;28;20502;-89
2023/03/17 03:18:14;;;;;;;1.20;0.90;;;19.90;96.40;;;;;;5022016;28;20434;-89
2023/03/17 03:20:45;;;;;;;1.33;1.17;;;19.70;96.40;;;;;;5039365;28;20445;-90
2023/03/17 03:23:12;;;;;;;2.27;1.10;;;19.70;96.40;;;;;;5039154;28;20465;-91
2023/03/17 03:25:39;;;;;;;1.10;0.80;;;19.70;96.30;;;;;;5034915;28;20526;-89
2023/03/17 03:28:08;;;;;;;1.27;1.17;;;19.90;96.40;;;;;;5017408;28;20569;-89
2023/03/17 03:30:37;;;;;;;2.43;1.03;;;19.70;96.30;;;;;;5017279;28;20902;-88
2023/03/17 03:33:04;;;;;;;1.10;0.87;;;19.70;96.40;;;;;;5015925;28;20945;-87
2023/03/17 03:35:31;;;;;;;1.10;0.90;;;19.70;96.40;;;;;;5020162;23;20488;-89
2023/03/17 03:37:58;;;;;;;1.20;0.90;;;19.70;96.50;;;;;;4996269;28;20439;-87
2023/03/17 03:40:25;;;;;;;1.13;0.83;;;19.70;96.40;;;;;;4997806;28;20446;-88
2023/03/17 03:42:51;;;;;;;1.13;0.73;;;19.70;96.40;;;;;;4996081;28;20448;-89
2023/03/17 03:45:20;;;;;;;1.30;1.00;;;19.70;96.40;;;;;;5012436;23;20488;-88
2023/03/17 03:47:47;;;;;;;1.20;0.80;;;19.90;96.50;;;;;;5017361;28;20544;-88
2023/03/17 03:50:13;;;;;;;1.10;0.90;;;19.70;96.50;;;;;;5015356;28;20534;-88
2023/03/17 03:52:40;;;;;;;1.40;1.00;;;19.70;96.50;;;;;;5015361;28;20439;-88
2023/03/17 03:55:08;;;;;;;1.43;0.93;;;19.90;96.60;;;;;;5016022;28;20490;-89
2023/03/17 03:57:35;;;;;;;1.43;1.33;;;19.60;96.50;;;;;;5015695;28;20442;-89
2023/03/17 04:00:03;;;;;;;1.77;1.00;;;19.60;96.50;;;;;;5022486;23;20487;-89
2023/03/17 04:02:32;;;;;;;1.10;0.90;;;19.70;96.50;;;;;;5016964;28;20809;-89
2023/03/17 04:04:58;;;;;;;2.63;0.90;;;19.80;96.40;;;;;;5015519;28;20450;-88
2023/03/17 04:07:25;;;;;;;1.30;1.10;;;19.70;96.20;;;;;;5017299;28;20451;-89
2023/03/17 04:09:52;;;;;;;1.37;0.90;;;19.70;96.20;;;;;;5017041;28;20775;-89
2023/03/17 04:12:19;;;;;;;1.00;0.90;;;19.70;96.40;;;;;;5018399;28;20496;-89
2023/03/17 04:14:46;;;;;;;2.20;1.07;;;19.60;96.40;;;;;;5038089;28;20509;-90
2023/03/17 04:17:14;;;;;;;1.10;0.80;;;19.60;96.60;;;;;;5037832;28;20435;-89
2023/03/17 04:20:21;;;;;;;1.10;1.00;;;19.60;96.40;;;;;;5025861;28;20435;-88
2023/03/17 04:22:49;;;;;;;1.20;0.90;;;19.60;96.40;;;;;;5032246;28;20982;-87
2023/03/17 04:25:16;;;;;;;1.77;0.87;;;19.60;96.30;;;;;;5018352;28;20439;-90
2023/03/17 04:27:43;;;;;;;1.40;1.20;;;19.60;96.20;;;;;;5018540;28;20454;-87
2023/03/17 04:30:12;;;;;;;1.23;0.80;;;19.60;96.10;;;;;;5018777;28;20442;-89
2023/03/17 04:32:40;;;;;;;1.10;0.90;;;19.60;96.40;;;;;;5018925;28;20564;-86
2023/03/17 04:35:09;;;;;;;1.60;0.90;;;19.60;96.30;;;;;;5018616;28;20487;-87
2023/03/17 04:37:37;;;;;;;2.13;1.00;;;19.60;96.50;;;;;;5019523;28;20447;-87
2023/03/17 04:40:08;;;;;;;1.10;0.80;;;19.60;96.60;;;;;;5019529;28;20457;-87
2023/03/17 04:42:35;;;;;;;1.17;0.80;;;19.60;96.60;;;;;;5019238;28;20841;-87
2023/03/17 04:45:02;;;;;;;1.20;0.80;;;19.60;96.80;;;;;;5018461;28;20445;-87
2023/03/17 04:47:29;;;;;;;1.50;1.20;;;19.60;96.70;;;;;;5018558;28;20445;-87
2023/03/17 04:49:56;;;;;;;1.10;1.00;;;19.60;96.60;;;;;;5019359;28;20454;-87
2023/03/17 04:52:23;;;;;;;1.00;0.80;;;19.60;96.70;;;;;;5018240;28;20554;-87
2023/03/17 04:54:50;;;;;;;1.20;1.10;;;19.60;96.60;;;;;;5018084;28;20487;-87
2023/03/17 04:57:18;;;;;;;1.10;0.80;;;19.60;96.50;;;;;;5018296;28;20545;-88
2023/03/17 04:59:45;;;;;;;1.20;1.00;;;19.70;96.90;;;;;;5018002;28;20570;-88
2023/03/17 05:02:12;;;;;;;1.10;0.90;;;19.60;96.90;;;;;;5018337;28;20452;-87
2023/03/17 05:04:40;;;;;;;1.00;0.80;;;;;;;;;;5017783;28;20950;-88
2023/03/17 05:07:08;;;;;;;1.30;1.00;;;;;;;;;;5017895;28;20441;-88
2023/03/17 05:09:35;;;;;;;1.00;0.77;;;;;;;;;;5018742;28;20443;-87
2023/03/17 05:12:02;;;;;;;1.80;1.10;;;19.50;97.10;;;;;;5018584;28;20469;-87
2023/03/17 05:14:31;;;;;;;1.00;0.73;;;;;;;;;;5017464;28;20528;-92
2023/03/17 05:16:58;;;;;;;1.10;0.80;;;19.50;64.00;;;;;;5018242;28;20438;-91
2023/03/17 05:19:25;;;;;;;1.40;0.80;;;19.60;66.10;;;;;;5021951;28;20437;-87
2023/03/17 05:21:52;;;;;;;1.07;0.90;;;19.60;64.10;;;;;;5017818;28;20828;-87
2023/03/17 05:24:19;;;;;;;1.17;0.80;;;19.60;63.30;;;;;;5017907;28;20446;-89
2023/03/17 05:26:46;;;;;;;1.13;0.90;;;19.60;63.40;;;;;;5017596;28;20452;-87
2023/03/17 05:29:13;;;;;;;1.00;0.80;;;19.60;62.80;;;;;;5019366;28;20547;-87
2023/03/17 05:31:42;;;;;;;1.10;0.90;;;19.60;63.90;;;;;;5018989;28;20542;-87
2023/03/17 05:34:08;;;;;;;1.10;0.90;;;19.60;62.90;;;;;;5018355;28;21004;-88
2023/03/17 05:36:35;;;;;;;1.30;0.90;;;19.50;62.70;;;;;;5018906;28;20490;-88
2023/03/17 05:39:02;;;;;;;1.63;0.90;;;19.60;62.60;;;;;;5017831;28;20443;-88
2023/03/17 05:41:29;;;;;;;1.23;0.80;;;19.60;62.80;;;;;;5018612;28;20445;-87
2023/03/17 05:43:56;;;;;;;1.07;0.83;;;19.60;62.60;;;;;;5018903;28;20448;-87
2023/03/17 05:46:23;;;;;;;1.73;1.10;;;19.60;62.50;;;;;;5017795;28;20448;-87
2023/03/17 05:48:51;;;;;;;1.10;0.80;;;19.60;62.40;;;;;;5018374;28;20452;-87
2023/03/17 05:51:18;;;;;;;1.20;1.10;;;19.50;62.60;;;;;;5018073;28;20455;-86
2023/03/17 05:53:45;;;;;;;1.00;0.83;;;19.50;62.60;;;;;;5024217;28;20451;-87
2023/03/17 05:56:12;;;;;;;1.40;0.90;;;19.50;62.30;;;;;;5022562;28;20485;-87
2023/03/17 05:58:39;;;;;;;1.10;0.90;;;19.60;62.40;;;;;;5027833;28;20497;-91
2023/03/17 06:01:06;;;;;;;2.03;0.80;;;19.50;62.10;;;;;;5024909;28;20836;-87
2023/03/17 06:03:33;;;;;;;1.13;0.83;;;19.50;62.20;;;;;;5025567;28;20446;-87
2023/03/17 06:06:01;;;;;;;1.23;1.00;;;19.70;62.50;;;;;;5022041;28;20931;-86
2023/03/17 06:08:29;;;;;;;1.63;0.80;;;19.80;62.50;;;;;;5020981;28;20462;-86
2023/03/17 06:10:55;;;;;;;0.90;0.70;;;19.50;62.20;;;;;;5018757;28;20442;-87
2023/03/17 06:13:22;;;;;;;1.00;0.70;;;19.50;62.40;;;;;;5027249;28;20443;-87
2023/03/17 06:15:51;;;;;;;1.10;1.00;;;19.50;62.10;;;;;;5028321;28;20473;-86
2023/03/17 06:18:19;;;;;;;1.10;0.97;;;19.50;62.30;;;;;;5018962;28;20935;-86
2023/03/17 06:20:46;;;;;;;1.10;0.90;;;19.50;62.20;;;;;;5013517;28;20798;-91
2023/03/17 06:23:14;;;;;;;1.00;0.80;;;19.70;62.50;;;;;;5018765;28;20492;-86
2023/03/17 06:25:44;;;;;;;1.00;0.90;;;19.50;62.10;;;;;;5009417;28;20460;-87
2023/03/17 06:28:11;;;;;;;1.20;0.80;;;19.50;62.20;;;;;;4996736;28;20521;-89
2023/03/17 06:30:38;;;;;;;1.00;0.90;;;19.50;62.30;;;;;;4996112;28;21038;-88
2023/03/17 06:33:05;;;;;;;1.10;0.70;;;19.50;62.00;;;;;;4996518;28;20452;-89
2023/03/17 06:35:33;;;;;;;1.00;0.70;;;19.50;62.00;;;;;;4996466;28;20570;-90
2023/03/17 06:38:00;;;;;;;1.00;0.80;;;19.50;62.20;;;;;;4996220;28;20845;-90
2023/03/17 06:40:30;;;;;;;1.30;1.17;;;19.50;62.20;;;;;;4996734;28;20551;-92
2023/03/17 06:42:58;;;;;;;1.17;0.80;;;19.50;62.10;;;;;;4996802;28;20991;-90
2023/03/17 06:45:28;;;;;;;1.30;1.00;;;19.70;62.20;;;;;;4997868;28;20521;-92
2023/03/17 06:47:55;;;;;;;1.83;0.90;;;19.60;62.00;;;;;;5008720;28;20514;-91
2023/03/17 06:50:22;;;;;;;1.10;0.90;;;19.80;62.30;;;;;;5028421;28;20442;-90
2023/03/17 06:52:49;;;;;;;1.20;1.00;;;19.60;61.90;;;;;;5034753;28;20443;-90
2023/03/17 06:55:16;;;;;;;1.30;1.10;;;19.60;61.70;;;;;;5016701;28;20489;-90
2023/03/17 06:57:45;;;;;;;2.90;0.80;;;19.60;61.80;;;;;;5015098;28;20544;-90
2023/03/17 07:00:14;;;;;;;2.07;0.90;;;19.60;61.80;;;;;;5014842;28;20479;-92
2023/03/17 07:02:42;;;;;;;1.10;0.90;;;19.60;61.90;;;;;;5015836;28;20456;-90
2023/03/17 07:05:09;;;;;;;2.90;0.90;;;19.60;61.80;;;;;;5014897;28;20443;-91
2023/03/17 07:07:36;;;;;;;1.43;1.10;;;19.60;62.00;;;;;;5014754;28;20449;-91
2023/03/17 07:10:03;;;;;;;1.27;1.10;;;19.60;62.40;;;;;;5014851;28;20471;-91
2023/03/17 07:12:31;;;;;;;4.33;1.23;;;19.60;62.20;;;;;;5014524;28;20449;-91
2023/03/17 07:15:00;;;;;;;3.20;1.40;;;19.80;62.30;;;;;;5014604;28;20478;-91
2023/03/17 07:17:28;;;;;;;1.43;1.00;;;19.80;62.60;;;;;;5015833;28;20447;-91
2023/03/17 07:19:55;;;;;;;3.53;1.10;;;19.70;62.70;;;;;;5016013;28;20453;-91
2023/03/17 07:22:22;;;;;;;5.43;1.33;;;19.70;62.90;;;;;;5015663;28;21008;-91
2023/03/17 07:24:50;;;;;;;2.80;1.23;;;19.70;63.20;;;;;;5015106;28;20479;-92
2023/03/17 07:27:17;;;;;;;2.33;1.67;;;19.80;63.30;;;;;;5015498;28;20450;-92
2023/03/17 07:29:44;;;;;;;2.80;2.40;;;19.70;63.50;;;;;;4996197;28;20447;-91
2023/03/17 07:32:13;;;;;;;5.97;3.10;;;19.70;64.40;;;;;;4995666;28;20491;-91
2023/03/17 07:34:40;;;;;;;4.30;2.37;;;19.70;64.00;;;;;;4996023;28;20895;-91
2023/03/17 07:37:07;;;;;;;3.60;1.93;;;19.70;64.10;;;;;;4994206;28;20502;-88
2023/03/17 07:39:34;;;;;;;3.00;2.00;;;19.70;64.60;;;;;;4996981;28;20467;-88
2023/03/17 07:42:01;;;;;;;3.03;2.00;;;19.70;63.00;;;;;;4998967;28;20922;-88
2023/03/17 07:44:30;;;;;;;2.80;2.00;;;19.70;64.90;;;;;;4997594;28;20816;-88
2023/03/17 07:46:56;;;;;;;5.30;2.07;;;19.80;65.50;;;;;;4998377;28;20444;-88
2023/03/17 07:49:25;;;;;;;4.80;2.03;;;19.80;65.90;;;;;;4999097;28;20448;-87
2023/03/17 07:51:52;;;;;;;5.67;2.63;;;19.90;67.10;;;;;;4997328;28;20522;-88
2023/03/17 07:54:21;;;;;;;3.60;2.10;;;19.80;66.10;;;;;;4995659;28;20446;-93
2023/03/17 07:56:48;;;;;;;7.70;1.93;;;20.00;66.00;;;;;;4996042;28;20562;-94
2023/03/17 07:59:16;;;;;;;5.20;1.90;;;19.90;65.80;;;;;;4996450;28;21016;-94
2023/03/17 08:01:43;;;;;;;4.10;2.47;;;19.90;65.60;;;;;;4995904;28;20468;-94
2023/03/17 08:04:13;;;;;;;3.67;2.43;;;19.90;65.60;;;;;;5013432;28;20475;-93
2023/03/17 08:06:45;;;;;;;3.83;2.13;;;19.90;65.30;;;;;;5019114;28;20421;-94
2023/03/17 08:09:13;;;;;;;4.13;1.80;;;19.90;65.40;;;;;;5019208;28;20471;-94
2023/03/17 08:11:44;;;;;;;4.17;2.40;;;20.00;65.30;;;;;;5003152;28;20518;-95
2023/03/17 08:14:12;;;;;;;6.83;2.03;;;20.00;65.30;;;;;;4996838;28;20487;-94
2023/03/17 08:16:41;;;;;;;1.83;1.50;;;20.00;65.10;;;;;;4996588;28;20487;-94
2023/03/17 08:19:09;;;;;;;5.57;2.37;;;20.00;65.30;;;;;;4996962;28;20455;-94
2023/03/17 08:21:37;;;;;;;2.17;1.97;;;20.10;65.10;;;;;;4997381;28;20437;-94
2023/03/17 08:24:11;;;;;;;2.30;2.10;;;20.10;65.00;;;;;;4996117;28;20447;-94
2023/03/17 08:26:38;;;;;;;2.53;1.93;;;20.10;64.90;;;;;;4996909;28;20433;-94
2023/03/17 08:29:08;;;;;;;2.27;1.47;;;20.10;64.70;;;;;;4997268;28;20511;-94
2023/03/17 08:31:37;;;;;;;3.73;2.03;;;20.20;64.90;;;;;;4996519;28;20452;-95
2023/03/17 08:34:04;;;;;;;2.60;1.80;;;20.20;64.50;;;;;;4996476;28;20480;-95
2023/03/17 08:36:41;;;;;;;2.43;2.07;;;20.20;64.60;;;;;;4996860;28;20821;-94
2023/03/17 08:39:11;;;;;;;3.73;2.00;;;20.30;65.10;;;;;;4998638;28;20544;-94
2023/03/17 08:41:40;;;;;;;2.10;1.90;;;20.30;65.10;;;;;;4996228;28;20513;-94
2023/03/17 08:44:11;;;;;;;2.33;1.73;;;20.30;65.80;;;;;;4996112;28;20479;-95
2023/03/17 08:46:42;;;;;;;2.20;1.90;;;20.20;66.30;;;;;;4995953;28;20447;-95
2023/03/17 08:49:10;;;;;;;6.10;1.80;;;20.40;68.00;;;;;;4995766;28;20455;-94
2023/03/17 08:51:47;;;;;;;4.10;2.10;;;20.50;67.90;;;;;;4996230;28;20839;-95
2023/03/17 08:54:16;;;;;;;2.03;1.80;;;20.50;68.60;;;;;;4996069;28;20471;-95
2023/03/17 08:56:44;;;;;;;2.33;1.97;;;20.50;67.40;;;;;;4995214;28;20487;-95
2023/03/17 08:59:14;;;;;;;2.00;1.60;;;20.50;66.80;;;;;;4995201;28;20534;-95
2023/03/17 09:01:42;;;;;;;1.70;1.60;;;20.60;66.80;;;;;;4997300;28;20518;-94
2023/03/17 09:04:14;;;;;;;2.80;1.53;;;20.60;67.40;;;;;;5000093;28;20846;-95
2023/03/17 09:06:41;;;;;;;1.60;1.50;;;20.60;67.90;;;;;;4999785;28;20457;-95
2023/03/17 09:09:09;;;;;;;1.73;1.63;;;20.60;68.30;;;;;;4999321;28;20444;-94
2023/03/17 09:11:39;;;;;;;2.30;1.70;;;20.60;69.00;;;;;;4998479;28;20458;-95
2023/03/17 09:14:10;;;;;;;3.30;1.80;;;20.80;68.70;;;;;;4998842;28;20444;-94
2023/03/17 09:16:51;;;;;;;2.00;1.60;;;20.80;66.70;;;;;;4999111;28;20476;-95
2023/03/17 09:19:26;;;;;;;2.50;1.43;;;20.80;64.70;;;;;;4999557;28;20431;-95
2023/03/17 09:21:58;;;;;;;1.73;1.63;;;20.80;65.60;;;;;;4998648;28;20420;-95
2023/03/17 09:24:30;;;;;;;2.53;1.70;;;20.80;66.70;;;;;;4999018;28;20922;-95
2023/03/17 09:27:09;;;;;;;1.80;1.63;;;21.00;67.30;;;;;;4998871;28;20464;-94
2023/03/17 09:29:38;;;;;;;2.23;1.60;;;20.90;70.00;;;;;;4998875;28;20507;-92
2023/03/17 09:32:07;;;;;;;1.70;1.53;;;21.00;70.20;;;;;;5011085;28;20455;-87
2023/03/17 09:34:35;;;;;;;1.73;1.40;;;20.90;70.10;;;;;;5016135;28;20443;-90
2023/03/17 09:37:01;;;;;;;3.20;1.30;;;20.80;70.90;;;;;;5018019;28;20495;-87
2023/03/17 09:39:28;;;;;;;5.90;1.80;;;20.80;70.50;;;;;;5018462;28;20439;-87
2023/03/17 09:42:07;;;;;;;2.43;1.50;;;20.80;70.30;;;;;;5017739;28;20444;-91
2023/03/17 09:54:48;;;;;;;1.87;1.40;;;20.60;69.80;;;;;;5014896;28;20506;-95
2023/03/17 09:57:29;;;;;;;7.30;1.67;;;21.00;69.70;;;;;;5018620;28;20990;-95
2023/03/17 10:04:18;;;;;;;4.07;1.80;;;20.80;67.30;;;;;;4994672;28;20454;-96
2023/03/17 10:07:27;;;;;;;2.83;1.70;;;20.90;67.70;;;;;;4979315;28;20492;-95
2023/03/17 10:16:09;;;;;;;1.50;1.40;;;21.10;69.70;;;;;;5066312;23;20491;-95
2023/03/17 10:18:43;;;;;;;5.30;2.30;;;21.10;71.10;;;;;;5021652;28;21014;-92
2023/03/17 10:21:15;;;;;;;2.10;1.47;;;21.10;70.90;;;;;;5020936;28;20859;-93
2023/03/17 10:23:43;;;;;;;4.77;1.80;;;21.10;72.30;;;;;;5022085;28;20514;-96
2023/03/17 10:26:24;;;;;;;3.53;1.60;;;21.10;64.80;;;;;;5017421;28;20855;-90
2023/03/17 10:28:53;;;;;;;2.13;1.93;;;21.20;63.50;;;;;;5018765;28;20497;-90
2023/03/17 10:31:28;;;;;;;3.57;1.50;;;21.20;62.70;;;;;;5016965;28;20497;-89
2023/03/17 10:33:58;;;;;;;3.60;1.90;;;21.30;63.80;;;;;;5020268;28;20438;-90
2023/03/17 10:36:36;;;;;;;1.50;1.20;;;21.30;61.30;;;;;;5026117;23;20478;-90
2023/03/17 10:39:05;;;;;;;3.73;2.17;;;21.40;63.90;;;;;;4998343;28;20490;-90
2023/03/17 10:41:35;;;;;;;3.10;1.63;;;21.50;61.20;;;;;;5000008;28;20479;-90
2023/03/17 10:44:02;;;;;;;1.70;1.40;;;21.50;59.20;;;;;;4998515;28;20451;-90
2023/03/17 10:46:30;;;;;;;4.83;1.40;;;21.50;58.20;;;;;;4996804;28;20883;-90
2023/03/17 10:49:04;;;;;;;5.27;2.40;;;21.60;57.90;;;;;;4997765;28;20459;-88
2023/03/17 10:51:35;;;;;;;5.13;1.80;;;21.60;57.40;;;;;;4997586;28;20452;-90
2023/03/17 10:54:12;;;;;;;1.53;1.43;;;21.60;57.40;;;;;;4997533;28;20935;-91
2023/03/17 10:56:42;;;;;;;2.60;1.40;;;21.60;57.30;;;;;;4997125;28;20479;-90
2023/03/17 10:59:17;;;;;;;3.03;1.70;;;21.60;57.50;;;;;;4998470;28;20429;-90
2023/03/17 11:01:51;;;;;;;1.77;1.30;;;21.70;57.50;;;;;;4998303;28;20855;-90
2023/03/17 11:04:28;;;;;;;3.53;1.47;;;21.70;57.50;;;;;;4997635;28;20499;-90
2023/03/17 11:06:57;;;;;;;2.43;1.33;;;21.70;57.50;;;;;;4997436;28;20455;-89
2023/03/17 11:09:25;;;;;;;1.60;1.30;;;21.70;58.20;;;;;;4996862;28;20468;-90
2023/03/17 11:12:02;;;;;;;2.60;1.70;;;21.70;57.70;;;;;;4996863;28;20453;-90
2023/03/17 11:14:29;;;;;;;1.43;1.20;;;21.70;57.60;;;;;;4997480;28;20538;-89
2023/03/17 11:17:00;;;;;;;3.27;1.33;;;21.70;57.60;;;;;;4992399;23;20501;-90
2023/03/17 11:19:37;;;;;;;2.70;1.40;;;21.80;57.70;;;;;;4978387;28;20453;-90
2023/03/17 11:22:11;;;;;;;2.70;1.17;;;21.70;57.70;;;;;;4978844;28;20413;-90
2023/03/17 11:24:47;;;;;;;3.70;1.67;;;21.70;57.70;;;;;;4978432;28;20774;-89
2023/03/17 11:27:25;;;;;;;5.33;1.40;;;21.70;58.40;;;;;;4990512;28;20451;-89
2023/03/17 11:30:20;;;;;;;1.60;1.27;;;21.80;57.80;;;;;;4996040;28;20448;-89
2023/03/17 11:32:55;;;;;;;1.93;1.13;;;21.80;57.80;;;;;;4997185;28;20998;-90
2023/03/17 11:35:43;;;;;;;1.47;1.10;;;21.80;57.90;;;;;;4997790;28;20451;-89
2023/03/17 11:38:23;;;;;;;2.13;1.30;;;21.90;57.90;;;;;;4996399;28;20461;-89
2023/03/17 11:41:22;;;;;;;1.50;1.30;;;22.10;58.10;;;;;;4996415;28;20472;-90
2023/03/17 11:44:12;;;;;;;1.47;1.33;;;21.90;58.00;;;;;;4997414;28;20449;-90
2023/03/17 11:46:46;;;;;;;1.87;1.07;;;21.90;58.10;;;;;;5003102;23;20497;-90
2023/03/17 11:49:19;;;;;;;1.90;1.70;;;22.00;58.20;;;;;;5002015;28;20439;-90
2023/03/17 11:51:58;;;;;;;1.50;1.30;;;21.90;58.20;;;;;;5015338;28;20780;-91
2023/03/17 11:54:35;;;;;;;4.27;1.50;;;21.90;58.10;;;;;;5018858;28;20435;-90
2023/03/17 11:57:06;;;;;;;3.00;1.70;;;21.90;58.10;;;;;;5015889;28;20496;-90
2023/03/17 11:59:39;;;;;;;6.03;1.70;;;21.90;58.20;;;;;;5015718;28;20527;-92
2023/03/17 12:02:19;;;;;;;4.03;1.50;;;21.90;58.80;;;;;;5013721;28;20458;-92
2023/03/17 12:04:54;;;;;;;2.03;1.37;;;21.80;57.80;;;;;;5014003;28;20446;-92
2023/03/17 12:07:24;;;;;;;4.10;2.00;;;21.70;57.50;;;;;;5014593;28;20534;-88
2023/03/17 12:10:00;;;;;;;2.20;1.17;;;21.70;57.50;;;;;;5004721;28;20463;-91
2023/03/17 12:12:32;;;;;;;4.53;1.40;;;21.70;57.60;;;;;;4979435;28;20944;-89
2023/03/17 12:15:00;;;;;;;3.67;1.70;;;21.60;57.80;;;;;;4976932;28;20445;-89
2023/03/17 12:17:34;;;;;;;2.67;1.47;;;21.60;58.00;;;;;;4974603;28;20481;-89
2023/03/17 12:20:15;;;;;;;2.80;1.60;;;21.60;58.20;;;;;;4974920;28;20449;-89
2023/03/17 12:22:46;;;;;;;3.10;1.27;;;21.60;58.40;;;;;;4974736;28;20793;-93
2023/03/17 12:25:20;;;;;;;7.23;1.63;;;21.60;58.50;;;;;;4994197;28;20436;-89
2023/03/17 12:27:54;;;;;;;7.13;1.57;;;21.60;58.70;;;;;;4985716;28;20940;-89
2023/03/17 12:30:27;;;;;;;2.23;1.40;;;21.70;59.60;;;;;;4974513;28;20441;-90
2023/03/17 12:33:02;;;;;;;2.70;1.23;;;21.60;59.40;;;;;;4975208;28;20849;-89
2023/03/17 12:35:33;;;;;;;1.77;1.40;;;21.80;59.70;;;;;;4977132;28;20454;-88
2023/03/17 12:38:03;;;;;;;4.40;1.60;;;21.90;59.70;;;;;;4979542;28;20492;-88
2023/03/17 12:40:34;;;;;;;4.53;1.73;;;21.70;59.60;;;;;;4980632;28;20488;-90
2023/03/17 12:43:18;;;;;;;7.03;1.30;;;21.70;60.00;;;;;;4981139;28;20464;-88
2023/03/17 12:45:58;;;;;;;5.00;1.50;;;21.70;59.90;;;;;;4980353;28;20457;-88
2023/03/17 12:48:39;;;;;;;2.77;1.27;;;21.70;60.50;;;;;;4979737;28;20441;-88
2023/03/17 12:51:36;;;;;;;5.10;1.33;;;21.70;60.10;;;;;;4979311;28;20484;-96
2023/03/17 12:54:03;;;;;;;6.23;2.23;;;21.70;60.30;;;;;;4981084;28;20441;-88
2023/03/17 12:56:31;;;;;;;2.17;1.40;;;21.70;60.10;;;;;;4980247;28;20453;-88
2023/03/17 12:59:04;;;;;;;2.33;1.37;;;21.70;60.20;;;;;;4979856;28;20489;-88
2023/03/17 13:01:33;;;;;;;7.17;1.53;;;21.70;60.60;;;;;;4979100;28;20870;-87
2023/03/17 13:04:16;;;;;;;2.00;1.80;;;21.60;60.30;;;;;;4980034;28;20441;-90
